首页
METAR-TAF:

METAR-TAF

机场 :

厦门高崎国际机场

厦门, 中华人民共和国

纬度: 24-29N, 经度: 118-05E, 海拔: 139米

当前天气观测

该预报发布于29分钟前的02:00 UTC
风速4节,风向,在东北东南之间变化
温度 31°C
湿度 75%
气压 1003 hPa
能见度10公里或以上
散云层高于2000英尺
少量云层高于2000英尺, 塔状积云.
多云层高于5000英尺

METAR: ZSAM 190200Z 09002MPS 050V140 9999 SCT020 FEW020TCU BKN050 31/26 Q1003 NOSIG

时间: 10:29 (02:29 UTC)

预报

该预报发布于7小时和11分钟前的19:18 UTC
预报有效从19日的 00点(UTC)到 19日的 24点(UTC)
风速8节,风向,有时为17节阵风
能見度: 8000
散云层高于3000英尺
成为
从 19日的 05点(UTC)到 19日的 06点(UTC)
少量云层高于2600英尺, 积雨云.
散云层高于3000英尺
短暂存在
从 19日的 06点(UTC)到 19日的 12点(UTC)
散云层高于2600英尺, 积雨云.
多云层高于3000英尺
雷暴
成为
从 19日的 12点(UTC)到 19日的 13点(UTC)
散云层高于3000英尺

TAF: ZSAM 181918Z 1900/1924 18004G09MPS 8000 SCT030 TX36/1906Z TN27/1921Z BECMG 1905/1906 FEW026CB SCT030 TEMPO 1906/1912 TS SCT026CB BKN030 BECMG 1912/1913 SCT030

超过4000个机场的气象观测和天气预报(METAR&TAF报告)。

可查询的气象台以黄色和红色小点在地图上表示。

将鼠标移到小点上方,可查看气象台名称。

然后点击查看天气观测和预报。

如需切换地图:点击带黑十字的绿色按钮放大地图;点击带横线的绿色按钮缩小地图;或者点击绿色箭头查看邻近地区的地图。


METAR-TAF: